Terminal Aerodrome Forecast
Issued by NWS Upton, NY

Home | Current Version | Previous Version | Text Only | Print | Product List | Glossary On
Versions: 1 2 3 4 5 6 7 8 9 10 11 12 13 14 15 16 17 18 19 20 21 22 23 24 25 26
000
FTUS41 KOKX 212000 AAA
TAFBDR
TAF AMD
KBDR 212028Z 2120/2218 35007KT 5SM -SNRA BR SCT010 OVC015
     FM220000 02004KT P6SM OVC015
     FM221200 04005KT P6SM BKN010 OVC020
     FM221700 07007KT P6SM -RA BKN010 OVC020=

USA.gov is the U.S. government's official web portal to all federal, state and local government web resources and services.